Weather History for Clinton, IA

Change the Weather History Date:

Friday, September 5, 2014

  Actual Average Record
Temperature  
Mean Temperature 68 °F -  
Max Temperature 78 °F 80 °F 94 °F (1954)
Min Temperature 57 °F 56 °F 41 °F (1962)
Cooling Degree Days 2    
Growing Degree Days 18 (Base 50)    
Moisture  
Dew Point 64 °F    
Average Humidity 81    
Maximum Humidity 94    
Minimum Humidity 57    
Precipitation  
Precipitation 0.46 in - - ()
Sea Level Pressure  
Sea Level Pressure 30.03 in    
Wind  
Wind Speed 8 mph (WNW)    
Max Wind Speed 20 mph    
Max Gust Speed 26 mph    
Visibility 10 miles    
Events Thunderstorm    
Averages and records for this station are not official NWS values.
T = Trace of Precipitation, MM = Missing Value Source: NWS Daily Summary

Daily Weather History Graph

Daily Weather History Graph

Search for Another Location

Airport:

Trip Planner

Search our weather history database for the weather conditions in past years. The results will help you decide how hot, cold, wet, or windy it might be!

Date:

Astronomy

Sep. 05, 2014 Rise Set
Actual Time 6:31 AM CDT 7:27 PM CDT
Civil Twilight 6:02 AM CDT 7:56 PM CDT
Nautical Twilight 5:28 AM CDT 8:29 PM CDT
Astronomical Twilight 4:53 AM CDT 9:05 PM CDT
Moon 4:59 PM CDT (9/5) 2:22 AM CDT (9/5)
Length of Visible Light 13h 53m
Length of Day
12h 56m
Waxing Gibbous, 84% of the Moon is Illuminated
Sep 5
Waxing Gibbous
Sep 8
Full
Sep 15
Last Quarter
Sep 24
New
Oct 1
First Quarter

Hourly Weather History & Observations

Time (CDT) Temp. Dew Point Humidity Pressure Visibility Wind Dir Wind Speed Gust Speed Precip Events Conditions
12:15 AM 75.2 °F 71.6 °F 89% 29.94 in 10.0 mi South 6.9 mph - N/A   Clear
12:35 AM 75.2 °F 71.6 °F 89% 29.94 in 10.0 mi South 8.1 mph - N/A   Clear
12:55 AM 75.2 °F 71.6 °F 89% 29.94 in 10.0 mi South 6.9 mph - N/A   Clear
1:15 AM 75.2 °F 71.6 °F 89% 29.94 in 10.0 mi South 6.9 mph - N/A   Partly Cloudy
1:35 AM 75.2 °F 71.6 °F 89% 29.94 in 10.0 mi South 8.1 mph - N/A   Partly Cloudy
1:55 AM 75.2 °F 71.6 °F 89% 29.93 in 10.0 mi SSW 8.1 mph - N/A   Mostly Cloudy
2:15 AM 75.2 °F 71.6 °F 89% 29.93 in 10.0 mi SSW 10.4 mph - N/A   Mostly Cloudy
2:35 AM 77.0 °F 71.6 °F 83% 29.93 in 10.0 mi SW 11.5 mph - N/A   Mostly Cloudy
2:55 AM 77.0 °F 71.6 °F 83% 29.93 in 10.0 mi SW 10.4 mph - N/A   Scattered Clouds
3:15 AM 77.0 °F 71.6 °F 83% 29.93 in 10.0 mi SW 10.4 mph - N/A   Partly Cloudy
3:35 AM 77.0 °F 71.6 °F 83% 29.94 in 10.0 mi SW 10.4 mph - N/A   Clear
3:55 AM 77.0 °F 69.8 °F 78% 29.94 in 10.0 mi WSW 11.5 mph - N/A   Scattered Clouds
4:15 AM 77.0 °F 69.8 °F 78% 29.95 in 10.0 mi WSW 12.7 mph 16.1 mph N/A   Mostly Cloudy
4:35 AM 77.0 °F 69.8 °F 78% 29.95 in 10.0 mi WSW 9.2 mph - N/A   Scattered Clouds
4:55 AM 75.2 °F 69.8 °F 83% 29.95 in 10.0 mi WSW 9.2 mph - N/A   Clear
5:15 AM 75.2 °F 69.8 °F 83% 29.96 in 10.0 mi WSW 6.9 mph - N/A   Partly Cloudy
5:35 AM 73.4 °F 69.8 °F 88% 29.97 in 10.0 mi WSW 6.9 mph - N/A   Partly Cloudy
5:55 AM 73.4 °F 69.8 °F 88% 29.98 in 10.0 mi West 5.8 mph - N/A   Clear
6:15 AM 73.4 °F 69.8 °F 88% 29.97 in 10.0 mi WSW 6.9 mph - N/A   Clear
6:35 AM 73.4 °F 69.8 °F 88% 29.98 in 10.0 mi West 4.6 mph - N/A   Clear
6:55 AM 73.4 °F 69.8 °F 88% 29.98 in 10.0 mi West 5.8 mph - N/A   Clear
7:15 AM 73.4 °F 69.8 °F 88% 29.99 in 10.0 mi WNW 5.8 mph - N/A   Clear
7:35 AM 73.4 °F 69.8 °F 88% 29.99 in 10.0 mi West 5.8 mph - N/A   Scattered Clouds
7:55 AM 75.2 °F 71.6 °F 89% 29.99 in 10.0 mi West 5.8 mph - N/A   Partly Cloudy
8:15 AM 75.2 °F 71.6 °F 89% 30.00 in 10.0 mi WNW 6.9 mph - N/A   Clear
8:35 AM 75.2 °F 71.6 °F 89% 30.01 in 10.0 mi WNW 12.7 mph - N/A   Scattered Clouds
9:15 AM 73.4 °F 69.8 °F 88% 30.02 in 10.0 mi NW 9.2 mph - 0.01 in   Partly Cloudy
9:35 AM 73.4 °F 69.8 °F 88% 30.03 in 10.0 mi NW 8.1 mph - 0.01 in   Clear
9:55 AM 73.4 °F 69.8 °F 88% 30.04 in 10.0 mi NW 4.6 mph - 0.01 in   Partly Cloudy
10:15 AM 73.4 °F 68.0 °F 83% 30.05 in 10.0 mi NNW 10.4 mph - N/A   Scattered Clouds
10:35 AM 75.2 °F 64.4 °F 69% 30.05 in 10.0 mi NNW 12.7 mph - N/A   Partly Cloudy
10:55 AM 75.2 °F 64.4 °F 69% 30.04 in 10.0 mi NW 11.5 mph - N/A   Clear
11:15 AM 75.2 °F 64.4 °F 69% 30.02 in 10.0 mi North 8.1 mph - N/A   Clear
11:35 AM 75.2 °F 64.4 °F 69% 30.02 in 10.0 mi North 5.8 mph - N/A   Clear
11:55 AM 75.2 °F 62.6 °F 65% 30.01 in 10.0 mi Calm Calm - N/A   Clear
12:15 PM 78.8 °F 64.4 °F 61% 30.01 in 10.0 mi Calm Calm - N/A   Clear
12:35 PM 78.8 °F 64.4 °F 61% 30.02 in 10.0 mi NW 5.8 mph - N/A   Partly Cloudy
12:55 PM 78.8 °F 66.2 °F 65% 30.02 in 10.0 mi West 8.1 mph - N/A   Clear
1:15 PM 78.8 °F 64.4 °F 61% 30.02 in 10.0 mi WNW 6.9 mph - N/A   Clear
1:35 PM 78.8 °F 64.4 °F 61% 30.03 in 10.0 mi West 8.1 mph - N/A   Clear
1:55 PM 78.8 °F 64.4 °F 61% 30.03 in 10.0 mi NW 11.5 mph - N/A   Clear
2:15 PM 77.0 °F 60.8 °F 57% 30.04 in 10.0 mi NW 16.1 mph 20.7 mph N/A   Clear
2:35 PM 75.2 °F 59.0 °F 57% 30.05 in 10.0 mi NW 13.8 mph - N/A   Scattered Clouds
2:55 PM 73.4 °F 60.8 °F 65% 30.06 in 10.0 mi NNW 18.4 mph 25.3 mph N/A   Mostly Cloudy
3:15 PM 69.8 °F 59.0 °F 68% 30.06 in 10.0 mi NNW 15.0 mph 19.6 mph N/A   Overcast
3:35 PM 69.8 °F 57.2 °F 64% 30.07 in 10.0 mi NW 19.6 mph 26.5 mph 0.03 in   Overcast
3:55 PM 64.4 °F 55.4 °F 73% 30.09 in 10.0 mi NW 15.0 mph 21.9 mph 0.05 in   Overcast
4:35 PM 57.2 °F 53.6 °F 88% 30.12 in 5.0 mi WNW 4.6 mph - 0.35 in Thunderstorm Thunderstorm
5:15 PM 59.0 °F 55.4 °F 88% 30.05 in 10.0 mi NNE 5.8 mph - 0.04 in   Overcast
5:35 PM 60.8 °F 57.2 °F 88% 30.04 in 10.0 mi Calm Calm - 0.05 in   Mostly Cloudy
5:55 PM 60.8 °F 57.2 °F 88% 30.05 in 10.0 mi West 4.6 mph - 0.05 in   Partly Cloudy
6:15 PM 60.8 °F 57.2 °F 88% 30.03 in 10.0 mi Calm Calm - N/A   Mostly Cloudy
6:35 PM 60.8 °F 57.2 °F 88% 30.05 in 10.0 mi WSW 4.6 mph - N/A   Scattered Clouds
6:55 PM 62.6 °F 59.0 °F 88% 30.04 in 10.0 mi NW 4.6 mph - N/A   Mostly Cloudy
7:15 PM 62.6 °F 59.0 °F 88% 30.05 in 10.0 mi West 4.6 mph - N/A   Mostly Cloudy
7:35 PM 62.6 °F 60.8 °F 94% 30.08 in 10.0 mi West 5.8 mph - N/A   Mostly Cloudy
7:55 PM 62.6 °F 60.8 °F 94% 30.11 in 10.0 mi West 5.8 mph - N/A   Mostly Cloudy
8:15 PM 62.6 °F 60.8 °F 94% 30.11 in 10.0 mi NW 6.9 mph - N/A   Overcast
8:35 PM 62.6 °F 59.0 °F 88% 30.12 in 10.0 mi NW 4.6 mph - N/A   Overcast
8:55 PM 62.6 °F 57.2 °F 82% 30.12 in 10.0 mi NNW 6.9 mph - N/A   Overcast
9:15 PM 62.6 °F 57.2 °F 82% 30.13 in 10.0 mi NW 8.1 mph - N/A   Overcast
9:35 PM 60.8 °F 57.2 °F 88% 30.13 in 10.0 mi NNW 9.2 mph - N/A   Overcast
9:55 PM 60.8 °F 55.4 °F 82% 30.14 in 10.0 mi NNW 9.2 mph - N/A   Overcast
10:15 PM 60.8 °F 55.4 °F 82% 30.15 in 10.0 mi NNW 9.2 mph - N/A   Overcast
10:35 PM 60.8 °F 55.4 °F 82% 30.15 in 10.0 mi North 10.4 mph - N/A   Overcast
10:55 PM 60.8 °F 55.4 °F 82% 30.16 in 10.0 mi North 6.9 mph - N/A   Scattered Clouds
11:35 PM 59.0 °F 53.6 °F 82% 30.17 in 10.0 mi NW 3.5 mph - N/A   Partly Cloudy
11:55 PM 57.2 °F 55.4 °F 94% 30.17 in 10.0 mi NNW 3.5 mph - N/A   Clear